Time;durP1;ratioP1;P1;durP2;ratioP2;P2;SDS_P1;SDS_P2;PMS_P1;PMS_P2;Temp;Humidity;BMP_temperature;BMP_pressure;BME280_temperature;BME280_humidity;BME280_pressure;Samples;Min_cycle;Max_cycle;Signal;HPM_P1;HPM_P2
2023/07/18 00:01:02;;;;;;;10.30;7.80;;;;;;;18.01;87.19;100383.50;103690;280;38451;-77
2023/07/18 00:03:45;;;;;;;10.50;7.80;;;;;;;17.95;87.49;100389.90;103663;280;38247;-76
2023/07/18 00:06:19;;;;;;;11.40;8.30;;;;;;;17.92;87.57;100396.16;103628;268;38462;-76
2023/07/18 00:08:54;;;;;;;8.50;7.60;;;;;;;17.90;87.78;100392.78;103697;292;39664;-75
2023/07/18 00:11:28;;;;;;;8.70;7.60;;;;;;;17.83;87.39;100379.45;103663;280;38659;-73
2023/07/18 00:14:02;;;;;;;8.20;7.40;;;;;;;17.75;87.59;100368.00;103080;280;896531;-73
2023/07/18 00:16:36;;;;;;;9.00;8.00;;;;;;;17.71;87.77;100358.17;103674;280;39447;-73
2023/07/18 00:19:12;;;;;;;8.70;7.80;;;;;;;17.72;87.99;100369.11;103687;280;38786;-73
2023/07/18 00:21:46;;;;;;;9.30;8.40;;;;;;;17.71;88.00;100389.48;103713;280;40363;-73
2023/07/18 00:24:20;;;;;;;11.00;8.50;;;;;;;17.67;88.08;100390.44;103691;280;38412;-74
2023/07/18 00:26:54;;;;;;;12.40;8.00;;;;;;;17.58;87.71;100396.83;103682;280;38250;-73
2023/07/18 00:29:28;;;;;;;9.20;7.10;;;;;;;17.46;87.65;100394.27;103556;280;174458;-75
2023/07/18 00:32:02;;;;;;;10.60;8.20;;;;;;;17.39;87.99;100401.27;103543;280;38382;-76
2023/07/18 00:34:40;;;;;;;10.00;8.60;;;;;;;17.34;88.04;100398.58;103686;276;38556;-75
2023/07/18 00:37:14;;;;;;;10.50;8.80;;;;;;;17.28;88.17;100405.71;103659;280;38836;-75
2023/07/18 00:39:48;;;;;;;9.70;7.90;;;;;;;17.19;88.19;100408.36;103439;280;38272;-75
2023/07/18 00:42:22;;;;;;;8.80;7.60;;;;;;;17.14;88.51;100406.83;103562;280;174916;-75
2023/07/18 00:44:56;;;;;;;9.90;8.30;;;;;;;17.11;88.66;100404.53;103716;280;38294;-73
2023/07/18 00:47:30;;;;;;;9.00;8.10;;;;;;;17.08;88.74;100400.48;103657;280;38253;-73
2023/07/18 00:50:07;;;;;;;8.90;7.90;;;;;;;17.04;88.70;100403.00;103678;280;38384;-76
2023/07/18 00:52:43;;;;;;;11.00;7.70;;;;;;;17.03;89.11;100404.50;103682;280;38483;-76
2023/07/18 00:55:17;;;;;;;8.10;7.30;;;;;;;17.01;88.96;100409.38;103699;280;38803;-77
2023/07/18 00:57:52;;;;;;;8.70;7.80;;;;;;;16.99;89.22;100409.67;103713;280;39687;-77
2023/07/18 01:00:28;;;;;;;8.80;7.90;;;;;;;16.97;89.18;100417.54;103701;280;38736;-77
2023/07/18 01:03:02;;;;;;;9.50;7.30;;;;;;;16.92;89.07;100424.06;103692;280;39443;-75
2023/07/18 01:05:39;;;;;;;7.80;6.70;;;;;;;16.88;88.91;100426.41;103694;280;38276;-77
2023/07/18 01:08:12;;;;;;;7.30;6.70;;;;;;;16.85;89.13;100434.75;103503;280;38287;-78
2023/07/18 01:10:46;;;;;;;8.40;6.80;;;;;;;16.82;89.28;100440.19;103666;280;38637;-73
2023/07/18 01:13:21;;;;;;;8.90;6.90;;;;;;;16.80;89.33;100439.10;103556;280;174920;-73
2023/07/18 01:15:55;;;;;;;7.30;6.60;;;;;;;16.80;89.58;100441.73;103653;280;39573;-78
2023/07/18 01:18:29;;;;;;;7.00;6.30;;;;;;;16.79;89.65;100444.77;103736;279;38563;-76
2023/07/18 01:21:04;;;;;;;7.80;6.50;;;;;;;16.81;89.50;100450.16;103693;280;38700;-74
2023/07/18 01:23:37;;;;;;;7.20;6.40;;;;;;;16.79;89.50;100455.20;103677;280;38692;-73
2023/07/18 01:26:13;;;;;;;8.00;6.10;;;;;;;16.80;89.99;100472.57;103660;280;38240;-77
2023/07/18 01:28:48;;;;;;;8.10;6.00;;;;;;;16.83;90.44;100501.63;103765;280;38218;-76
2023/07/18 01:31:22;;;;;;;8.80;5.80;;;;;;;16.90;90.88;100537.45;103648;280;38755;-76
2023/07/18 01:33:56;;;;;;;11.40;6.60;;;;;;;16.98;91.29;100562.34;103712;280;39720;-75
2023/07/18 01:36:30;;;;;;;8.10;6.30;;;;;;;17.06;91.29;100576.70;103689;280;39409;-77
2023/07/18 01:39:05;;;;;;;13.40;6.90;;;;;;;17.08;90.95;100584.64;103641;280;38268;-76
2023/07/18 01:41:39;;;;;;;9.10;6.40;;;;;;;17.09;90.99;100598.02;103642;280;38313;-77
2023/07/18 01:44:13;;;;;;;7.60;5.60;;;;;;;17.10;91.01;100623.33;103544;280;174913;-77
2023/07/18 01:46:48;;;;;;;7.10;5.80;;;;;;;17.10;90.92;100640.80;103650;279;38828;-74
2023/07/18 01:49:22;;;;;;;6.50;4.70;;;;;;;17.09;90.48;100634.84;103611;280;39422;-73
2023/07/18 01:51:56;;;;;;;6.50;4.40;;;;;;;17.07;89.86;100633.56;103661;280;38800;-75
2023/07/18 01:54:30;;;;;;;8.10;4.30;;;;;;;16.99;88.96;100626.45;103545;280;174414;-76
2023/07/18 01:57:06;;;;;;;6.60;4.60;;;;;;;16.88;88.59;100622.70;103667;280;38736;-76
2023/07/18 01:59:41;;;;;;;5.50;4.20;;;;;;;16.77;88.38;100619.34;103516;280;38261;-76
2023/07/18 02:02:15;;;;;;;4.00;3.30;;;;;;;16.65;87.59;100635.33;103697;280;38430;-74
2023/07/18 02:04:49;;;;;;;6.10;3.70;;;;;;;16.56;87.56;100637.27;103691;280;38302;-75
2023/07/18 02:07:25;;;;;;;5.30;3.70;;;;;;;16.50;87.95;100640.25;103713;279;38951;-75
2023/07/18 02:10:00;;;;;;;5.20;3.30;;;;;;;16.44;87.99;100644.48;103684;280;38333;-76
2023/07/18 02:12:34;;;;;;;5.70;2.90;;;;;;;16.40;88.17;100648.21;103752;280;38896;-76
2023/07/18 02:15:13;;;;;;;5.20;3.60;;;;;;;16.38;88.16;100655.59;103716;280;39352;-76
2023/07/18 02:17:46;;;;;;;4.80;3.80;;;;;;;16.36;88.51;100659.91;103747;280;38289;-77
2023/07/18 02:20:20;;;;;;;7.40;3.60;;;;;;;16.34;88.58;100657.73;103613;274;40379;-74
2023/07/18 02:22:55;;;;;;;6.70;3.80;;;;;;;16.35;88.83;100648.04;103689;279;39628;-75
2023/07/18 02:25:30;;;;;;;6.20;4.30;;;;;;;16.33;88.81;100631.78;103752;280;38460;-75
2023/07/18 02:28:04;;;;;;;7.80;3.90;;;;;;;16.32;88.77;100642.17;103679;280;41329;-75
2023/07/18 02:30:38;;;;;;;5.20;3.60;;;;;;;16.31;88.63;100654.23;103707;280;38303;-75
2023/07/18 02:33:12;;;;;;;5.90;3.60;;;;;;;16.33;88.84;100656.41;103629;280;38590;-75
2023/07/18 02:35:50;;;;;;;6.00;3.90;;;;;;;16.36;89.12;100645.85;103657;280;39422;-75
2023/07/18 02:38:24;;;;;;;9.30;4.00;;;;;;;16.40;89.45;100624.29;103680;279;38531;-75
2023/07/18 02:40:58;;;;;;;5.20;3.50;;;;;;;16.43;89.59;100620.60;103574;280;174941;-75
2023/07/18 02:43:32;;;;;;;5.40;3.50;;;;;;;16.43;89.50;100620.61;103551;280;39208;-72
2023/07/18 02:46:06;;;;;;;7.20;3.60;;;;;;;16.45;89.70;100636.50;103699;280;38511;-75
2023/07/18 02:48:41;;;;;;;6.10;3.70;;;;;;;16.46;89.77;100644.86;103690;280;38754;-76
2023/07/18 02:51:15;;;;;;;7.40;3.40;;;;;;;16.49;89.84;100673.23;103751;280;39237;-74
2023/07/18 02:53:49;;;;;;;5.30;3.50;;;;;;;16.51;89.97;100680.73;103682;280;39789;-75
2023/07/18 02:56:23;;;;;;;6.30;4.00;;;;;;;16.50;89.88;100689.03;103767;280;38489;-77
2023/07/18 02:58:57;;;;;;;6.70;4.20;;;;;;;16.49;90.09;100697.56;103667;280;38253;-77
2023/07/18 03:01:31;;;;;;;4.40;3.70;;;;;;;16.49;90.08;100694.20;103726;280;38505;-74
2023/07/18 03:04:05;;;;;;;4.50;3.60;;;;;;;16.48;89.81;100686.71;103732;280;39400;-74
2023/07/18 03:06:39;;;;;;;5.10;3.60;;;;;;;16.46;89.59;100670.26;103711;280;38511;-76
2023/07/18 03:09:16;;;;;;;6.20;3.60;;;;;;;16.45;89.83;100632.61;103699;280;38373;-75
2023/07/18 03:11:51;;;;;;;4.20;3.70;;;;;;;16.48;90.47;100613.62;103685;280;38253;-76
2023/07/18 03:14:25;;;;;;;6.50;3.90;;;;;;;16.55;90.36;100597.02;103705;279;38263;-75
2023/07/18 03:16:59;;;;;;;4.70;3.70;;;;;;;16.58;90.19;100621.84;103644;280;38494;-78
2023/07/18 03:19:34;;;;;;;7.20;4.10;;;;;;;16.55;89.31;100637.71;103576;281;38249;-75
2023/07/18 03:22:08;;;;;;;5.30;3.40;;;;;;;16.50;89.33;100637.63;103657;280;38434;-78
2023/07/18 03:24:43;;;;;;;7.10;4.10;;;;;;;16.48;89.62;100655.67;103663;280;38213;-76
2023/07/18 03:27:18;;;;;;;7.00;3.50;;;;;;;16.46;89.96;100659.70;103544;280;38290;-76
2023/07/18 03:29:52;;;;;;;4.10;3.70;;;;;;;16.45;89.96;100652.35;103666;280;39430;-75
2023/07/18 03:32:27;;;;;;;4.10;3.60;;;;;;;16.44;89.92;100631.44;103544;280;38529;-75
2023/07/18 03:35:00;;;;;;;4.70;3.40;;;;;;;16.42;89.86;100632.78;103653;280;38517;-76
2023/07/18 03:37:35;;;;;;;3.80;3.30;;;;;;;16.39;89.80;100644.77;103542;281;38285;-77
2023/07/18 03:40:15;;;;;;;7.60;3.60;;;;;;;16.38;89.94;100651.67;103673;280;39646;-76
2023/07/18 03:42:50;;;;;;;4.90;4.00;;;;;;;16.39;89.98;100655.34;103703;280;39419;-76
2023/07/18 03:45:24;;;;;;;5.10;3.40;;;;;;;16.32;89.41;100654.71;103681;280;38277;-76
2023/07/18 03:47:58;;;;;;;6.20;4.00;;;;;;;16.26;89.73;100667.34;103721;280;38390;-75
2023/07/18 03:50:31;;;;;;;6.60;3.70;;;;;;;16.23;89.87;100671.89;103757;280;38995;-76
2023/07/18 03:53:05;;;;;;;5.20;4.20;;;;;;;16.32;90.05;100670.02;103723;280;38429;-76
2023/07/18 03:55:39;;;;;;;5.10;3.80;;;;;;;16.85;94.36;100667.43;103699;280;40067;-74
2023/07/18 03:58:13;;;;;;;7.50;3.90;;;;;;;17.93;96.24;100664.00;103698;280;38433;-75
2023/07/18 04:00:47;;;;;;;5.00;3.20;;;;;;;19.01;92.24;100663.40;103714;280;38287;-74
2023/07/18 04:03:21;;;;;;;4.30;3.40;;;;;;;19.92;87.90;100663.03;103708;280;38394;-74
2023/07/18 04:05:56;;;;;;;5.20;3.60;;;;;;;20.72;84.45;100666.34;103675;280;38378;-76
2023/07/18 04:08:30;;;;;;;4.20;3.30;;;;;;;21.44;80.27;100662.36;103629;280;39458;-75
2023/07/18 04:11:04;;;;;;;4.00;3.40;;;;;;;22.03;77.59;100655.40;103703;280;38988;-78
2023/07/18 04:13:38;;;;;;;3.90;3.50;;;;;;;22.66;74.50;100650.38;103638;280;38238;-76
2023/07/18 04:16:12;;;;;;;5.40;3.60;;;;;;;23.16;72.06;100653.23;103507;282;39533;-75
2023/07/18 04:18:46;;;;;;;4.00;3.10;;;;;;;23.46;69.20;100644.04;103660;280;38929;-74
2023/07/18 04:21:21;;;;;;;4.20;3.50;;;;;;;23.43;67.12;100635.59;103699;280;39459;-76
2023/07/18 04:23:58;;;;;;;4.30;3.30;;;;;;;23.12;66.37;100632.58;103659;280;38380;-78
2023/07/18 04:26:32;;;;;;;6.40;3.90;;;;;;;22.51;66.68;100645.89;103674;280;38794;-74
2023/07/18 04:29:07;;;;;;;4.20;3.80;;;;;;;21.94;67.39;100646.55;103528;280;40373;-74
2023/07/18 04:31:41;;;;;;;4.80;4.00;;;;;;;21.60;68.58;100656.73;103683;280;38654;-76
2023/07/18 04:34:16;;;;;;;7.40;4.30;;;;;;;21.77;69.70;100660.67;103621;280;174224;-76
2023/07/18 04:36:51;;;;;;;5.30;3.90;;;;;;;22.14;69.66;100667.50;103718;280;38436;-74
2023/07/18 04:39:25;;;;;;;4.60;3.50;;;;;;;22.25;68.24;100679.76;103738;280;38250;-74
2023/07/18 04:41:59;;;;;;;4.30;3.40;;;;;;;22.14;68.27;100683.96;103773;280;39446;-75
2023/07/18 04:44:34;;;;;;;5.90;3.30;;;;;;;21.87;68.25;100685.62;103766;280;38258;-76
2023/07/18 04:47:09;;;;;;;5.90;3.50;;;;;;;21.56;68.48;100688.28;103727;280;38362;-77
2023/07/18 04:49:43;;;;;;;4.80;3.70;;;;;;;21.23;68.43;100696.29;103718;280;38288;-77
2023/07/18 04:52:19;;;;;;;6.30;4.20;;;;;;;20.97;69.70;100701.90;103683;279;38562;-77
2023/07/18 04:54:53;;;;;;;4.80;3.50;;;;;;;20.72;70.68;100708.19;103706;280;38269;-77
2023/07/18 04:57:28;;;;;;;3.90;3.10;;;;;;;20.54;71.79;100705.79;103712;280;39149;-78
2023/07/18 05:00:03;;;;;;;4.90;3.40;;;;;;;20.42;72.39;100701.92;103687;280;38938;-79
2023/07/18 05:02:38;;;;;;;5.40;3.30;;;;;;;20.48;72.92;100706.25;103693;280;39377;-77
2023/07/18 05:05:14;;;;;;;5.70;3.60;;;;;;;21.20;74.78;100707.55;103688;279;38342;-77
2023/07/18 05:07:48;;;;;;;4.10;3.40;;;;;;;22.29;73.41;100698.54;103644;280;38259;-76
2023/07/18 05:10:22;;;;;;;4.80;3.30;;;;;;;23.40;71.74;100698.14;103718;280;39352;-74
2023/07/18 05:12:56;;;;;;;3.60;3.20;;;;;;;24.41;66.83;100697.94;103685;280;39202;-74
2023/07/18 05:15:31;;;;;;;6.80;3.00;;;;;;;25.34;64.26;100695.69;103696;280;38531;-76
2023/07/18 05:18:05;;;;;;;3.40;3.00;;;;;;;26.32;60.45;100694.27;103326;279;505544;-75
2023/07/18 05:20:39;;;;;;;3.60;3.00;;;;;;;26.98;57.51;100688.33;103725;280;38820;-78
2023/07/18 05:23:13;;;;;;;4.60;3.20;;;;;;;27.39;55.39;100692.79;103734;279;38547;-80
2023/07/18 05:25:47;;;;;;;4.00;3.60;;;;;;;27.88;53.27;100688.38;103719;284;38270;-75
2023/07/18 05:28:22;;;;;;;4.00;3.10;;;;;;;28.38;51.46;100690.52;103752;279;38276;-74
2023/07/18 05:30:56;;;;;;;3.50;2.90;;;;;;;28.82;49.75;100695.79;103738;280;38424;-76
2023/07/18 05:33:30;;;;;;;4.30;2.60;;;;;;;29.13;48.68;100698.27;103703;280;38309;-77
2023/07/18 05:36:05;;;;;;;4.00;2.70;;;;;;;29.48;47.93;100698.88;103736;280;38551;-75
2023/07/18 05:38:39;;;;;;;4.10;2.30;;;;;;;29.81;47.47;100697.98;103677;280;40127;-76
2023/07/18 05:41:12;;;;;;;2.80;2.50;;;;;;;30.14;45.91;100698.61;103692;279;38269;-78
2023/07/18 05:43:46;;;;;;;3.10;2.60;;;;;;;30.44;45.40;100698.14;103685;280;39091;-77
2023/07/18 05:46:21;;;;;;;2.80;2.60;;;;;;;30.86;44.21;100696.55;103706;280;38467;-78
2023/07/18 05:48:56;;;;;;;3.30;2.50;;;;;;;31.14;42.81;100695.25;103757;280;38388;-78
2023/07/18 05:51:31;;;;;;;5.00;2.90;;;;;;;31.30;42.06;100694.90;103685;280;38387;-75
2023/07/18 05:54:05;;;;;;;3.20;2.50;;;;;;;31.31;41.30;100694.30;103673;280;38706;-74
2023/07/18 05:56:41;;;;;;;2.60;2.40;;;;;;;31.55;41.14;100699.50;103783;280;39373;-78
2023/07/18 05:59:16;;;;;;;4.20;2.70;;;;;;;31.82;40.99;100701.89;103582;280;174111;-79
2023/07/18 06:01:50;;;;;;;5.60;2.80;;;;;;;32.10;40.24;100702.44;103599;280;38679;-75
2023/07/18 06:04:27;;;;;;;5.20;2.70;;;;;;;32.36;39.57;100705.73;103654;280;38313;-78
2023/07/18 06:07:01;;;;;;;3.80;2.70;;;;;;;32.52;39.45;100710.29;103750;280;38237;-77
2023/07/18 06:09:36;;;;;;;3.20;2.90;;;;;;;32.76;38.71;100711.67;103700;280;38242;-77
2023/07/18 06:12:16;;;;;;;4.90;2.90;;;;;;;32.74;37.57;100713.70;103750;280;39738;-77
2023/07/18 06:14:50;;;;;;;5.00;2.80;;;;;;;32.81;38.03;100712.77;103710;279;38402;-77
2023/07/18 06:17:24;;;;;;;3.80;2.60;;;;;;;33.03;36.81;100713.85;103726;280;38950;-77
2023/07/18 06:19:58;;;;;;;4.70;3.10;;;;;;;33.13;36.79;100711.63;103692;280;39441;-77
2023/07/18 06:22:32;;;;;;;2.80;2.50;;;;;;;33.16;36.54;100714.73;103564;279;38511;-77
2023/07/18 06:25:07;;;;;;;3.10;2.70;;;;;;;33.24;36.21;100717.27;103690;280;38746;-77
2023/07/18 06:27:41;;;;;;;3.70;2.70;;;;;;;33.53;35.88;100719.94;103695;268;38401;-78
2023/07/18 06:30:26;;;;;;;4.00;2.80;;;;;;;33.74;35.73;100717.25;103694;279;39008;-77
2023/07/18 06:33:01;;;;;;;3.10;2.60;;;;;;;33.80;35.04;100720.16;103641;280;38532;-77
2023/07/18 06:35:58;;;;;;;2.60;2.40;;;;;;;33.91;35.18;100724.85;103686;280;39245;-78
2023/07/18 06:38:33;;;;;;;4.30;2.40;;;;;;;34.04;35.20;100729.40;103538;280;38419;-78
2023/07/18 06:41:12;;;;;;;3.70;2.30;;;;;;;34.22;34.93;100730.96;103589;280;174004;-78
2023/07/18 06:43:48;;;;;;;5.60;2.40;;;;;;;34.68;33.57;100727.41;103670;280;38365;-79
2023/07/18 06:46:22;;;;;;;3.10;2.00;;;;;;;34.98;33.60;100733.17;103685;280;38778;-80
2023/07/18 06:48:57;;;;;;;3.50;2.20;;;;;;;35.13;32.20;100736.30;103709;280;38428;-77
2023/07/18 06:51:33;;;;;;;2.60;2.10;;;;;;;35.12;32.71;100733.77;103680;280;38246;-77
2023/07/18 06:54:07;;;;;;;3.80;2.30;;;;;;;35.30;32.33;100733.57;103598;280;38265;-79
2023/07/18 06:56:45;;;;;;;2.60;2.00;;;;;;;35.44;31.54;100737.70;103766;280;39172;-79
2023/07/18 06:59:19;;;;;;;2.60;2.10;;;;;;;35.83;31.05;100734.68;103819;280;38928;-79
2023/07/18 07:01:54;;;;;;;4.60;1.90;;;;;;;36.07;30.98;100738.16;103648;280;39186;-77
2023/07/18 07:04:32;;;;;;;3.50;1.90;;;;;;;36.27;29.93;100735.38;103728;280;38718;-75
2023/07/18 07:07:09;;;;;;;2.10;1.70;;;;;;;36.36;28.55;100738.77;103799;279;38905;-79
2023/07/18 07:09:49;;;;;;;2.20;1.60;;;;;;;36.01;28.52;100742.63;103765;280;38270;-78
2023/07/18 07:12:25;;;;;;;2.10;1.40;;;;;;;35.95;29.04;100749.52;103888;280;38255;-80
2023/07/18 07:14:59;;;;;;;2.80;1.90;;;;;;;35.96;27.82;100751.16;103940;280;38278;-78
2023/07/18 07:17:38;;;;;;;2.50;1.60;;;;;;;35.97;27.76;100746.46;103923;280;38819;-79
2023/07/18 07:20:14;;;;;;;2.50;1.90;;;;;;;36.07;28.68;100746.13;103870;280;39531;-78
2023/07/18 07:22:48;;;;;;;1.70;1.60;;;;;;;36.29;27.45;100747.77;103868;280;40459;-79
2023/07/18 07:25:22;;;;;;;2.10;1.70;;;;;;;36.05;27.58;100753.55;103717;279;39018;-76
2023/07/18 07:27:57;;;;;;;1.70;1.50;;;;;;;35.92;27.53;100753.45;103727;280;38663;-79
2023/07/18 07:30:32;;;;;;;1.30;1.20;;;;;;;36.26;27.20;100757.15;103933;280;38233;-79
2023/07/18 07:33:06;;;;;;;1.40;1.30;;;;;;;36.38;26.56;100758.40;103999;280;38238;-79
2023/07/18 07:35:43;;;;;;;2.90;1.60;;;;;;;36.40;26.13;100756.70;103701;280;38293;-79
2023/07/18 07:38:19;;;;;;;3.70;1.20;;;;;;;36.25;25.75;100756.14;103717;281;38594;-78
2023/07/18 07:40:53;;;;;;;1.70;1.30;;;;;;;36.29;24.86;100755.61;103823;279;38291;-79
2023/07/18 07:43:27;;;;;;;1.50;0.90;;;;;;;36.06;24.56;100757.98;103874;280;39740;-78
2023/07/18 07:46:02;;;;;;;3.10;1.20;;;;;;;35.78;23.95;100760.25;103743;279;39590;-75
2023/07/18 07:48:36;;;;;;;1.50;1.00;;;;;;;35.61;24.14;100759.87;103648;280;38406;-76
2023/07/18 07:51:10;;;;;;;1.70;1.20;;;;;;;35.83;25.62;100760.27;103696;280;38685;-76
2023/07/18 07:53:44;;;;;;;1.30;1.00;;;;;;;36.34;25.29;100756.30;103675;280;38490;-76
2023/07/18 07:56:19;;;;;;;2.30;1.40;;;;;;;36.68;24.67;100763.33;103695;279;39444;-76
2023/07/18 07:58:56;;;;;;;1.40;1.10;;;;;;;36.90;23.45;100763.91;103646;280;39467;-76
2023/07/18 08:01:30;;;;;;;1.70;1.20;;;;;;;37.05;23.43;100766.23;103678;280;38247;-79
2023/07/18 08:04:04;;;;;;;1.50;1.10;;;;;;;36.94;22.16;100768.23;103825;280;38382;-79
2023/07/18 08:06:39;;;;;;;0.90;0.90;;;;;;;36.71;22.97;100770.05;103708;280;38650;-77
2023/07/18 08:09:13;;;;;;;1.40;1.30;;;;;;;36.97;22.87;100771.44;103678;280;38430;-78
2023/07/18 08:11:47;;;;;;;2.80;1.30;;;;;;;37.32;22.90;100768.87;103661;280;39430;-77
2023/07/18 08:14:21;;;;;;;1.20;1.00;;;;;;;37.49;22.35;100770.39;103832;268;39349;-78
2023/07/18 08:16:56;;;;;;;2.80;0.90;;;;;;;37.79;22.01;100778.26;103659;280;38976;-77
2023/07/18 08:19:31;;;;;;;3.60;1.30;;;;;;;37.82;21.56;100769.83;103712;280;38331;-77
2023/07/18 08:22:08;;;;;;;2.80;1.30;;;;;;;37.86;21.24;100771.32;103964;280;38647;-78
2023/07/18 08:24:43;;;;;;;1.40;1.30;;;;;;;37.87;22.80;100771.59;103934;280;38520;-78
2023/07/18 08:27:18;;;;;;;3.50;1.20;;;;;;;38.13;22.77;100765.92;103634;280;173557;-76
2023/07/18 08:29:52;;;;;;;3.30;1.30;;;;;;;38.33;22.08;100762.95;103733;280;38343;-79
2023/07/18 08:32:27;;;;;;;1.50;1.20;;;;;;;38.46;21.90;100767.35;103729;280;38711;-78
2023/07/18 08:35:01;;;;;;;1.70;1.10;;;;;;;38.66;21.87;100768.27;103544;280;38470;-78
2023/07/18 08:37:36;;;;;;;2.20;1.10;;;;;;;38.88;20.65;100758.61;103669;280;38253;-77
2023/07/18 08:40:13;;;;;;;1.20;1.00;;;;;;;38.89;20.20;100761.40;103673;279;39745;-74
2023/07/18 08:42:48;;;;;;;1.20;0.80;;;;;;;38.91;19.63;100759.84;103560;280;39456;-74
2023/07/18 08:45:22;;;;;;;1.20;1.00;;;;;;;38.90;19.78;100756.98;103750;280;38803;-79
2023/07/18 08:47:56;;;;;;;3.10;1.20;;;;;;;38.90;19.63;100754.14;103875;280;38884;-80
2023/07/18 08:50:31;;;;;;;3.10;1.30;;;;;;;38.78;19.54;100756.94;103851;280;38403;-74
2023/07/18 08:53:06;;;;;;;1.50;1.10;;;;;;;38.45;20.25;100758.41;103681;280;39690;-75
2023/07/18 08:55:40;;;;;;;1.40;1.20;;;;;;;38.51;20.63;100755.90;103758;280;39561;-79
2023/07/18 08:58:14;;;;;;;2.30;1.20;;;;;;;38.89;20.96;100749.08;103852;280;38962;-79
2023/07/18 09:00:48;;;;;;;2.30;1.20;;;;;;;39.06;20.04;100753.64;103828;280;38883;-78
2023/07/18 09:03:22;;;;;;;3.00;1.00;;;;;;;38.98;19.84;100753.61;103672;280;38639;-79
2023/07/18 09:05:57;;;;;;;1.60;1.00;;;;;;;38.77;18.58;100753.52;103665;280;38660;-77
2023/07/18 09:08:34;;;;;;;2.40;1.00;;;;;;;38.41;18.78;100756.66;103678;280;38251;-78
2023/07/18 09:11:08;;;;;;;2.50;1.20;;;;;;;38.43;19.45;100758.81;103679;280;38402;-74
2023/07/18 09:13:43;;;;;;;1.90;1.00;;;;;;;38.43;19.26;100757.50;103553;280;39229;-74
2023/07/18 09:16:19;;;;;;;1.10;1.00;;;;;;;38.50;19.55;100760.79;103559;280;39622;-77
2023/07/18 09:18:54;;;;;;;1.40;1.10;;;;;;;38.40;19.65;100756.74;103605;281;39162;-76
2023/07/18 09:21:29;;;;;;;1.40;0.90;;;;;;;38.03;19.01;100757.39;103670;280;39157;-76
2023/07/18 09:24:03;;;;;;;1.00;0.90;;;;;;;37.45;19.37;100745.78;103664;280;38614;-77
2023/07/18 09:26:37;;;;;;;2.00;0.90;;;;;;;36.80;20.41;100744.84;103711;280;39928;-78
2023/07/18 09:29:14;;;;;;;2.20;1.20;;;;;;;36.58;20.87;100750.27;103553;280;38255;-78
2023/07/18 09:31:48;;;;;;;1.40;0.90;;;;;;;36.37;20.28;100752.59;103708;279;38278;-75
2023/07/18 09:34:22;;;;;;;2.40;1.30;;;;;;;35.85;20.90;100754.15;103667;280;38537;-76
2023/07/18 09:37:01;;;;;;;1.90;0.90;;;;;;;35.48;20.92;100752.81;103659;280;40097;-76
2023/07/18 09:39:36;;;;;;;1.50;1.00;;;;;;;35.07;21.06;100749.86;103524;280;40120;-76
2023/07/18 09:42:11;;;;;;;2.10;1.10;;;;;;;34.67;21.84;100755.12;103655;280;39038;-74
2023/07/18 09:44:49;;;;;;;1.60;0.90;;;;;;;34.34;22.50;100755.74;103529;280;174124;-77
2023/07/18 09:47:23;;;;;;;2.60;1.00;;;;;;;33.95;22.16;100755.86;103661;280;39410;-77
2023/07/18 09:49:59;;;;;;;1.50;0.80;;;;;;;33.44;23.08;100748.75;103692;280;38237;-81
2023/07/18 09:52:35;;;;;;;1.20;0.80;;;;;;;33.19;23.34;100750.14;103724;280;38266;-77
2023/07/18 09:55:11;;;;;;;1.10;0.80;;;;;;;32.73;23.94;100750.59;103734;279;38265;-75
2023/07/18 09:57:48;;;;;;;1.40;1.00;;;;;;;32.32;24.76;100749.05;103704;279;38256;-76
2023/07/18 10:00:22;;;;;;;1.20;1.10;;;;;;;32.00;25.33;100751.09;103743;280;38298;-75
2023/07/18 10:02:56;;;;;;;3.30;1.00;;;;;;;31.92;25.77;100748.86;103638;280;38492;-77
2023/07/18 10:05:32;;;;;;;1.50;0.70;;;;;;;31.94;25.36;100752.51;103717;280;39038;-78
2023/07/18 10:08:10;;;;;;;1.10;0.70;;;;;;;31.99;25.25;100752.36;103704;280;38952;-77
2023/07/18 10:10:46;;;;;;;2.00;0.80;;;;;;;31.96;26.11;100750.27;103561;280;38516;-73
2023/07/18 10:13:22;;;;;;;2.60;0.80;;;;;;;31.97;25.99;100747.42;103716;279;38507;-77
2023/07/18 10:16:26;;;;;;;2.20;0.80;;;;;;;31.90;26.15;100743.16;103739;279;38365;-77
2023/07/18 10:19:20;;;;;;;2.50;0.90;;;;;;;31.98;26.43;100736.73;103694;279;38550;-76
2023/07/18 10:22:00;;;;;;;1.60;1.00;;;;;;;31.99;25.89;100735.06;103552;280;38854;-73
2023/07/18 10:24:39;;;;;;;1.60;1.00;;;;;;;31.83;25.78;100740.77;103684;280;38250;-73
2023/07/18 10:27:14;;;;;;;1.60;0.80;;;;;;;31.69;25.07;100738.73;103711;280;38243;-77
2023/07/18 10:30:06;;;;;;;2.30;1.00;;;;;;;31.50;25.66;100736.81;103581;280;39270;-75
2023/07/18 10:32:45;;;;;;;2.70;0.90;;;;;;;31.42;26.06;100739.30;103720;280;39884;-77
2023/07/18 10:35:22;;;;;;;1.30;0.90;;;;;;;31.35;25.65;100738.33;103618;280;38268;-77
2023/07/18 10:38:06;;;;;;;1.50;1.00;;;;;;;31.17;25.06;100731.94;103752;280;38463;-75
2023/07/18 10:40:46;;;;;;;2.60;1.00;;;;;;;30.99;25.46;100729.83;103680;280;38899;-77
2023/07/18 10:43:22;;;;;;;2.30;1.10;;;;;;;30.97;26.38;100725.50;103539;280;39218;-76
2023/07/18 10:45:57;;;;;;;2.00;1.10;;;;;;;31.06;26.62;100721.06;103746;279;39913;-76
2023/07/18 10:48:33;;;;;;;1.60;0.80;;;;;;;31.10;26.74;100720.94;103782;280;38265;-77
2023/07/18 10:51:11;;;;;;;2.10;0.90;;;;;;;30.98;26.59;100723.98;103769;280;39426;-76
2023/07/18 10:53:45;;;;;;;;;;;;;;;30.84;26.91;100719.75;103659;280;38923;-77
2023/07/18 10:56:27;;;;;;;2.10;1.00;;;;;;;30.72;26.76;100719.45;103819;280;38271;-77
2023/07/18 10:59:07;;;;;;;1.50;0.80;;;;;;;30.64;27.05;100710.48;103763;280;38224;-79
2023/07/18 11:01:46;;;;;;;1.90;0.90;;;;;;;30.55;27.16;100710.45;103844;280;39190;-77
2023/07/18 11:04:24;;;;;;;3.40;0.90;;;;;;;30.57;27.93;100707.40;103559;280;40250;-75
2023/07/18 11:06:59;;;;;;;1.80;1.00;;;;;;;30.61;27.23;100707.94;103586;279;38466;-75
2023/07/18 11:09:35;;;;;;;1.30;0.80;;;;;;;30.60;27.45;100706.48;103667;280;38874;-75
2023/07/18 11:12:18;;;;;;;1.40;0.90;;;;;;;30.59;27.28;100708.39;103753;280;38255;-77
2023/07/18 11:14:55;;;;;;;2.10;0.80;;;;;;;30.55;27.24;100704.58;103736;279;38215;-76
2023/07/18 11:17:31;;;;;;;2.90;1.10;;;;;;;30.42;26.77;100706.27;103710;280;38228;-77
2023/07/18 11:20:12;;;;;;;1.40;0.90;;;;;;;30.31;26.62;100708.22;103576;281;39088;-77
2023/07/18 11:22:47;;;;;;;2.10;0.70;;;;;;;30.18;26.88;100705.77;103693;280;38526;-77
2023/07/18 11:25:22;;;;;;;2.90;1.00;;;;;;;30.12;27.17;100698.60;103761;280;39070;-78
2023/07/18 11:27:58;;;;;;;2.70;1.00;;;;;;;30.06;27.39;100700.35;103717;280;39564;-78
2023/07/18 11:30:33;;;;;;;1.60;0.80;;;;;;;30.06;27.37;100693.80;103735;280;39431;-77
2023/07/18 11:33:16;;;;;;;1.60;0.70;;;;;;;30.11;27.73;100688.75;103713;280;38337;-78
2023/07/18 11:35:50;;;;;;;1.70;0.90;;;;;;;30.16;27.44;100697.25;103760;280;40042;-74
2023/07/18 11:38:25;;;;;;;2.00;1.00;;;;;;;30.07;26.70;100693.39;103551;280;38271;-77
2023/07/18 11:41:04;;;;;;;2.30;0.80;;;;;;;30.00;26.75;100690.22;103767;280;38839;-78
2023/07/18 11:43:41;;;;;;;1.20;0.80;;;;;;;29.72;26.31;100689.64;103740;280;38539;-77
2023/07/18 11:46:17;;;;;;;0.70;0.50;;;;;;;29.53;26.60;100683.40;103553;280;39656;-75
2023/07/18 11:48:55;;;;;;;1.20;0.50;;;;;;;29.47;27.29;100686.30;103682;280;38242;-75
2023/07/18 11:51:32;;;;;;;1.50;0.70;;;;;;;29.45;27.84;100687.73;103577;280;38289;-76
2023/07/18 11:54:07;;;;;;;2.10;0.70;;;;;;;29.36;27.37;100685.49;103726;268;38224;-75
2023/07/18 11:56:42;;;;;;;1.50;0.70;;;;;;;29.12;27.83;100684.77;103645;280;39426;-73
2023/07/18 11:59:18;;;;;;;2.30;1.10;;;;;;;28.99;27.83;100689.91;103689;280;38284;-75
2023/07/18 12:01:52;;;;;;;1.90;0.70;;;;;;;28.95;28.40;100690.91;103578;280;39462;-76